createdAt,value
2023-04-02T00:00:24.397Z,2.53
2023-04-02T00:00:55.550Z,3.83
2023-04-02T00:01:27.311Z,3.89
2023-04-02T00:01:59.329Z,3.01
2023-04-02T00:02:31.958Z,2.67
2023-04-02T00:03:03.475Z,3.70
2023-04-02T00:03:35.525Z,2.57
2023-04-02T00:03:51.869Z,3.24
2023-04-02T00:04:23.341Z,3.43
2023-04-02T00:04:55.324Z,3.78
2023-04-02T00:05:28.370Z,2.28
2023-04-02T00:05:59.405Z,2.61
2023-04-02T00:06:32.306Z,2.66
2023-04-02T00:07:03.565Z,2.04
2023-04-02T00:07:35.500Z,2.66
2023-04-02T00:07:51.799Z,1.70
2023-04-02T00:08:23.309Z,2.39
2023-04-02T00:08:55.414Z,1.90
2023-04-02T00:09:27.424Z,1.86
2023-04-02T00:09:59.388Z,1.97
2023-04-02T00:10:32.437Z,2.32
2023-04-02T00:11:03.324Z,2.62
2023-04-02T00:11:35.587Z,2.26
2023-04-02T00:11:52.263Z,2.08
2023-04-02T00:12:23.383Z,1.64
2023-04-02T00:12:55.395Z,2.46
2023-04-02T00:13:27.383Z,1.80
2023-04-02T00:13:59.473Z,2.37
2023-04-02T00:14:32.440Z,2.84
2023-04-02T00:15:05.648Z,2.66
2023-04-02T00:15:36.420Z,1.39
2023-04-02T00:16:07.274Z,2.39
2023-04-02T00:16:36.179Z,1.57
2023-04-02T00:16:55.694Z,1.94
2023-04-02T00:17:27.424Z,1.47
2023-04-02T00:17:59.758Z,2.28
2023-04-02T00:18:32.056Z,2.14
2023-04-02T00:19:03.407Z,2.30
2023-04-02T00:19:35.773Z,2.47
2023-04-02T00:19:51.854Z,1.59
2023-04-02T00:20:23.635Z,1.56
2023-04-02T00:20:55.290Z,1.43
2023-04-02T00:21:27.488Z,1.63
2023-04-02T00:21:59.339Z,2.82
2023-04-02T00:22:31.912Z,1.56
2023-04-02T00:23:03.327Z,1.43
2023-04-02T00:23:35.821Z,1.28
2023-04-02T00:23:52.265Z,1.94
2023-04-02T00:24:23.232Z,1.94
2023-04-02T00:24:55.244Z,1.56
2023-04-02T00:25:27.827Z,2.14
2023-04-02T00:25:59.625Z,1.54
2023-04-02T00:26:31.897Z,1.95
2023-04-02T00:27:03.403Z,.89
2023-04-02T00:27:35.430Z,.98
2023-04-02T00:27:51.899Z,.95
2023-04-02T00:28:23.391Z,.68
2023-04-02T00:28:55.472Z,2.07
2023-04-02T00:29:27.268Z,.70
2023-04-02T00:29:59.470Z,.58
2023-04-02T00:30:33.056Z,1.33
2023-04-02T00:31:03.275Z,1.33
2023-04-02T00:31:35.459Z,1.24
2023-04-02T00:31:51.815Z,1.24
2023-04-02T00:32:23.164Z,1.56
2023-04-02T00:32:55.316Z,.49
2023-04-02T00:33:27.399Z,.15
2023-04-02T00:33:59.456Z,1.37
2023-04-02T00:34:31.998Z,1.82
2023-04-02T00:35:05.008Z,1.82
2023-04-02T00:35:36.088Z,1.61
2023-04-02T00:36:07.239Z,.40
2023-04-02T00:36:36.909Z,.78
2023-04-02T00:36:55.667Z,.71
2023-04-02T00:37:27.423Z,1.23
2023-04-02T00:37:59.596Z,1.32
2023-04-02T00:38:31.865Z,1.86
2023-04-02T00:39:03.232Z,1.17
2023-04-02T00:39:35.899Z,1.36
2023-04-02T00:40:08.108Z,1.86
2023-04-02T00:40:36.186Z,3.17
2023-04-02T00:40:55.715Z,1.56
2023-04-02T00:41:27.313Z,1.32
2023-04-02T00:41:59.397Z,1.61
2023-04-02T00:42:31.978Z,2.35
2023-04-02T00:43:03.441Z,1.27
2023-04-02T00:43:36.022Z,2.69
2023-04-02T00:44:07.270Z,2.21
2023-04-02T00:44:36.404Z,2.35
2023-04-02T00:44:55.286Z,2.04
2023-04-02T00:45:28.212Z,2.04
2023-04-02T00:45:59.814Z,2.10
2023-04-02T00:46:32.065Z,2.04
2023-04-02T00:47:03.293Z,1.92
2023-04-02T00:47:35.511Z,1.56
2023-04-02T00:47:52.101Z,1.92
2023-04-02T00:48:23.308Z,1.41
2023-04-02T00:48:55.345Z,1.23
2023-04-02T00:49:27.395Z,.49
2023-04-02T00:49:59.487Z,.88
2023-04-02T00:50:32.323Z,1.68
2023-04-02T00:51:03.633Z,.72
2023-04-02T00:51:35.533Z,1.17
2023-04-02T00:51:51.986Z,1.17
2023-04-02T00:52:23.374Z,.57
2023-04-02T00:52:55.398Z,.84
2023-04-02T00:53:27.372Z,.42
2023-04-02T00:53:59.615Z,.70
2023-04-02T00:54:32.142Z,.43
2023-04-02T00:55:05.014Z,0
2023-04-02T00:55:36.043Z,.10
2023-04-02T00:55:52.698Z,.84
2023-04-02T00:56:23.406Z,1.14
2023-04-02T00:56:55.402Z,.28
2023-04-02T00:57:27.347Z,1.22
2023-04-02T00:57:59.357Z,1.57
2023-04-02T00:58:32.259Z,1.17
2023-04-02T00:59:03.323Z,.49
2023-04-02T00:59:35.526Z,.21
2023-04-02T00:59:52.715Z,.57
2023-04-02T01:00:24.335Z,.03
2023-04-02T01:00:55.500Z,.40
2023-04-02T01:01:59.268Z,.93
2023-04-02T01:02:32.284Z,.83
2023-04-02T01:03:03.422Z,1.15
2023-04-02T01:03:35.942Z,1.03
2023-04-02T01:03:51.866Z,.64
2023-04-02T01:04:23.272Z,.79
2023-04-02T01:04:55.603Z,.56
2023-04-02T01:05:27.869Z,1.43
2023-04-02T01:05:59.307Z,.68
2023-04-02T01:06:31.893Z,.99
2023-04-02T01:07:03.234Z,.64
2023-04-02T01:07:35.476Z,.64
2023-04-02T01:07:52.059Z,.39
2023-04-02T01:08:23.549Z,.35
2023-04-02T01:08:56.089Z,.80
2023-04-02T01:09:27.315Z,.46
2023-04-02T01:09:59.481Z,.65
2023-04-02T01:10:32.577Z,.29
2023-04-02T01:11:03.266Z,1.06
2023-04-02T01:11:35.547Z,1.06
2023-04-02T01:11:51.858Z,0
2023-04-02T01:12:23.262Z,.35
2023-04-02T01:12:55.129Z,-.30
2023-04-02T01:13:27.290Z,-.06
2023-04-02T01:13:59.931Z,.79
2023-04-02T01:14:31.880Z,-.33
2023-04-02T01:15:05.275Z,.21
2023-04-02T01:15:35.608Z,-.07
2023-04-02T01:15:52.443Z,.61
2023-04-02T01:16:23.346Z,-.20
2023-04-02T01:16:55.239Z,.66
2023-04-02T01:17:27.340Z,.41
2023-04-02T01:18:00.184Z,.07
2023-04-02T01:18:31.763Z,.45
2023-04-02T01:19:03.338Z,.07
2023-04-02T01:19:35.569Z,.72
2023-04-02T01:19:51.812Z,.45
2023-04-02T01:20:23.610Z,.72
2023-04-02T01:20:55.223Z,.60
2023-04-02T01:21:27.277Z,.45
2023-04-02T01:21:59.478Z,1.63
2023-04-02T01:22:31.896Z,1.63
2023-04-02T01:23:03.727Z,1.12
2023-04-02T01:23:35.720Z,.39
2023-04-02T01:24:07.287Z,1.01
2023-04-02T01:24:36.099Z,1.33
2023-04-02T01:24:55.197Z,1.27
2023-04-02T01:25:27.665Z,1.21
2023-04-02T01:25:59.308Z,.34
2023-04-02T01:26:31.933Z,1.01
2023-04-02T01:27:03.214Z,1.27
2023-04-02T01:27:35.559Z,1.06
2023-04-02T01:27:51.812Z,1.27
2023-04-02T01:28:23.400Z,1.81
2023-04-02T01:28:55.216Z,1.06
2023-04-02T01:29:27.435Z,.77
2023-04-02T01:29:59.302Z,1.81
2023-04-02T01:30:32.851Z,1.27
2023-04-02T01:31:03.220Z,1.40
2023-04-02T01:31:35.569Z,.77
2023-04-02T01:31:51.888Z,.55
2023-04-02T01:32:23.223Z,1.12
2023-04-02T01:32:55.486Z,.67
2023-04-02T01:33:27.482Z,1.12
2023-04-02T01:33:59.408Z,.46
2023-04-02T01:34:42.740Z,.37
2023-04-02T01:35:04.939Z,-.12
2023-04-02T01:35:36.470Z,.82
2023-04-02T01:36:07.366Z,.87
2023-04-02T01:36:36.127Z,.37
2023-04-02T01:36:55.333Z,.05
2023-04-02T01:37:27.410Z,.53
2023-04-02T01:37:59.458Z,.32
2023-04-02T01:38:31.972Z,.05
2023-04-02T01:39:03.175Z,.32
2023-04-02T01:39:35.330Z,.27
2023-04-02T01:39:51.774Z,-.16
2023-04-02T01:40:23.619Z,-.38
2023-04-02T01:40:55.409Z,-.47
2023-04-02T01:41:27.391Z,-.54
2023-04-02T01:41:59.630Z,-.41
2023-04-02T01:42:32.074Z,-.54
2023-04-02T01:43:03.353Z,-1.42
2023-04-02T01:43:35.886Z,-.27
2023-04-02T01:44:07.224Z,-.73
2023-04-02T01:44:36.023Z,-.89
2023-04-02T01:44:55.325Z,-.45
2023-04-02T01:45:28.350Z,-.21
2023-04-02T01:45:59.563Z,-.30
2023-04-02T01:46:31.927Z,-.84
2023-04-02T01:47:03.290Z,-.59
2023-04-02T01:47:35.936Z,-.01
2023-04-02T01:48:07.562Z,-.23
2023-04-02T01:48:36.478Z,.15
2023-04-02T01:48:55.558Z,.10
2023-04-02T01:49:27.837Z,-.61
2023-04-02T01:49:59.548Z,-.43
2023-04-02T01:50:32.825Z,-.86
2023-04-02T01:51:03.189Z,-.36
2023-04-02T01:51:35.325Z,.05
2023-04-02T01:51:51.879Z,-.32
2023-04-02T01:52:23.169Z,.51
2023-04-02T01:52:55.493Z,.10
2023-04-02T01:53:27.348Z,.73
2023-04-02T01:53:59.493Z,-.47
2023-04-02T01:54:32.010Z,-.43
2023-04-02T01:55:04.426Z,-.36
2023-04-02T01:55:35.804Z,-.27
2023-04-02T01:55:52.296Z,-.11
2023-04-02T01:56:23.327Z,.05
2023-04-02T01:56:55.482Z,.15
2023-04-02T01:57:27.538Z,-.47
2023-04-02T01:57:59.478Z,.10
2023-04-02T01:58:31.938Z,-.01
2023-04-02T01:59:03.232Z,-.36
2023-04-02T01:59:35.603Z,-.91
2023-04-02T01:59:52.031Z,-1.36
2023-04-02T02:00:24.372Z,-1.70
2023-04-02T02:00:55.809Z,-1.47
2023-04-02T02:01:27.317Z,-.65
2023-04-02T02:01:59.642Z,.15
2023-04-02T02:02:31.898Z,-.03
2023-04-02T02:03:03.404Z,.47
2023-04-02T02:03:35.462Z,-.69
2023-04-02T02:03:52.069Z,-.30
2023-04-02T02:04:23.748Z,-.83
2023-04-02T02:04:55.292Z,-.30
2023-04-02T02:05:27.970Z,.38
2023-04-02T02:05:59.575Z,-.03
2023-04-02T02:06:32.067Z,.53
2023-04-02T02:07:03.340Z,.38
2023-04-02T02:07:35.451Z,-1.17
2023-04-02T02:07:51.794Z,-.75
2023-04-02T02:08:23.617Z,-.15
2023-04-02T02:08:55.329Z,-.56
2023-04-02T02:09:27.366Z,.07
2023-04-02T02:09:59.486Z,.59
2023-04-02T02:10:32.367Z,-1.13
2023-04-02T02:11:03.280Z,-1.08
2023-04-02T02:11:35.365Z,-.25
2023-04-02T02:11:51.945Z,-.30
2023-04-02T02:12:23.480Z,-.87
2023-04-02T02:12:55.463Z,-.25
2023-04-02T02:13:27.550Z,.07
2023-04-02T02:13:59.542Z,-.41
2023-04-02T02:14:31.877Z,.20
2023-04-02T02:15:05.778Z,-.25
2023-04-02T02:15:35.784Z,-.41
2023-04-02T02:15:52.310Z,-.03
2023-04-02T02:16:23.556Z,-.91
2023-04-02T02:16:55.408Z,-1.20
2023-04-02T02:17:27.808Z,-1.04
2023-04-02T02:17:59.720Z,-.61
2023-04-02T02:18:32.400Z,-1.53
2023-04-02T02:19:03.276Z,-.50
2023-04-02T02:19:35.501Z,-.59
2023-04-02T02:19:51.870Z,-.21
2023-04-02T02:20:23.540Z,-1.11
2023-04-02T02:20:55.357Z,.53
2023-04-02T02:21:27.509Z,-.16
2023-04-02T02:21:59.539Z,-.34
2023-04-02T02:22:32.013Z,.24
2023-04-02T02:23:03.337Z,.07
2023-04-02T02:23:35.392Z,-.29
2023-04-02T02:23:51.965Z,-1.38
2023-04-02T02:24:23.451Z,-1.53
2023-04-02T02:24:55.497Z,-.64
2023-04-02T02:25:27.916Z,-1.43
2023-04-02T02:25:59.526Z,-.94
2023-04-02T02:26:32.279Z,-1.12
2023-04-02T02:27:03.384Z,-.44
2023-04-02T02:27:36.053Z,-1.26
2023-04-02T02:28:07.710Z,-1.04
2023-04-02T02:28:36.143Z,-1.37
2023-04-02T02:28:55.566Z,-1.62
2023-04-02T02:29:27.819Z,-.85
2023-04-02T02:30:01.950Z,-1.04
2023-04-02T02:30:32.588Z,-.70
2023-04-02T02:31:03.338Z,-.26
2023-04-02T02:31:36.451Z,-.98
2023-04-02T02:32:07.819Z,-1.20
2023-04-02T02:32:36.294Z,-.98
2023-04-02T02:32:55.416Z,-1.33
2023-04-02T02:33:27.459Z,.88
2023-04-02T02:33:59.715Z,-.12
2023-04-02T02:34:31.842Z,-.26
2023-04-02T02:35:04.795Z,-.85
2023-04-02T02:35:36.337Z,-1.04
2023-04-02T02:35:52.479Z,-.26
2023-04-02T02:36:23.263Z,-1.43
2023-04-02T02:36:55.368Z,-.58
2023-04-02T02:37:27.300Z,.48
2023-04-02T02:37:59.357Z,-.20
2023-04-02T02:38:32.078Z,-.58
2023-04-02T02:39:03.286Z,-.44
2023-04-02T02:39:35.320Z,-.26
2023-04-02T02:39:51.919Z,-.79
2023-04-02T02:40:23.826Z,-.70
2023-04-02T02:40:55.381Z,-1.12
2023-04-02T02:41:27.693Z,-.85
2023-04-02T02:41:59.368Z,.25
2023-04-02T02:42:32.490Z,.48
2023-04-02T02:43:03.308Z,-.53
2023-04-02T02:43:35.502Z,-.44
2023-04-02T02:43:51.985Z,-1.77
2023-04-02T02:44:23.532Z,-.90
2023-04-02T02:44:55.386Z,-.53
2023-04-02T02:45:28.336Z,-1.83
2023-04-02T02:45:59.562Z,-1.43
2023-04-02T02:46:31.980Z,-1.47
2023-04-02T02:47:03.375Z,-1.04
2023-04-02T02:47:35.529Z,-1.26
2023-04-02T02:47:51.909Z,-.93
2023-04-02T02:48:23.332Z,-1.14
2023-04-02T02:48:55.329Z,-1.29
2023-04-02T02:49:27.817Z,-1.74
2023-04-02T02:49:59.584Z,-1.14
2023-04-02T02:50:32.467Z,-1.50
2023-04-02T02:51:03.304Z,-.78
2023-04-02T02:51:35.477Z,-.94
2023-04-02T02:51:51.959Z,-.90
2023-04-02T02:52:23.470Z,-1.33
2023-04-02T02:52:55.740Z,-1.82
2023-04-02T02:53:27.711Z,-.99
2023-04-02T02:53:59.549Z,-1.10
2023-04-02T02:54:32.045Z,-1.37
2023-04-02T02:55:04.909Z,-1.63
2023-04-02T02:55:35.551Z,-.99
2023-04-02T02:55:52.461Z,-1.10
2023-04-02T02:56:23.361Z,-.69
2023-04-02T02:56:55.381Z,-1.33
2023-04-02T02:57:27.517Z,-1.60
2023-04-02T02:57:59.475Z,-1.38
2023-04-02T02:58:32.058Z,-1.51
2023-04-02T02:59:03.494Z,-1.43
2023-04-02T02:59:36.127Z,-1.28
2023-04-02T03:00:08.613Z,-1.19
2023-04-02T03:00:36.092Z,-1.38
2023-04-02T03:00:55.770Z,-.40
2023-04-02T03:01:27.413Z,-.82
2023-04-02T03:01:59.496Z,-.99
2023-04-02T03:02:32.118Z,-1.08
2023-04-02T03:03:03.469Z,-.92
2023-04-02T03:03:35.592Z,-1.64
2023-04-02T03:03:52.064Z,-1.77
2023-04-02T03:04:23.529Z,-.92
2023-04-02T03:04:55.430Z,-.77
2023-04-02T03:05:27.818Z,-.92
2023-04-02T03:05:59.473Z,-.54
2023-04-02T03:06:31.985Z,-.92
2023-04-02T03:07:03.331Z,-.54
2023-04-02T03:07:35.666Z,-1.51
2023-04-02T03:07:52.125Z,-1.08
2023-04-02T03:08:23.260Z,-1.68
2023-04-02T03:08:55.478Z,-2.40
2023-04-02T03:09:27.493Z,-1.43
2023-04-02T03:09:59.364Z,-1.82
2023-04-02T03:10:32.351Z,-1.52
2023-04-02T03:11:03.330Z,-1.22
2023-04-02T03:11:35.458Z,-1.82
2023-04-02T03:11:52.540Z,-1.74
2023-04-02T03:12:23.348Z,-1.22
2023-04-02T03:12:55.347Z,-.67
2023-04-02T03:13:27.295Z,-1.13
2023-04-02T03:13:59.713Z,-.47
2023-04-02T03:14:31.977Z,-.42
2023-04-02T03:15:05.682Z,-.36
2023-04-02T03:15:36.078Z,-1.17
2023-04-02T03:16:07.506Z,-.47
2023-04-02T03:16:36.176Z,-.59
2023-04-02T03:16:55.582Z,-1.33
2023-04-02T03:17:27.413Z,-.67
2023-04-02T03:17:59.503Z,-.42
2023-04-02T03:18:31.908Z,-.53
2023-04-02T03:19:03.293Z,-.36
2023-04-02T03:19:35.422Z,-.36
2023-04-02T03:19:51.994Z,.02
2023-04-02T03:20:23.839Z,-.47
2023-04-02T03:20:55.797Z,-1.38
2023-04-02T03:21:27.266Z,-.36
2023-04-02T03:21:59.423Z,-.83
2023-04-02T03:22:31.933Z,-.67
2023-04-02T03:23:03.350Z,-1.13
2023-04-02T03:23:35.462Z,-.20
2023-04-02T03:23:52.067Z,.02
2023-04-02T03:24:23.825Z,-.07
2023-04-02T03:24:55.450Z,-.42
2023-04-02T03:25:28.099Z,.43
2023-04-02T03:26:00.055Z,-1.22
2023-04-02T03:26:32.033Z,-.47
2023-04-02T03:27:03.403Z,-.83
2023-04-02T03:27:35.455Z,-.42
2023-04-02T03:27:52.166Z,-.74
2023-04-02T03:28:23.570Z,-1.32
2023-04-02T03:28:55.516Z,-1.16
2023-04-02T03:29:27.613Z,-.50
2023-04-02T03:30:01.602Z,-1.11
2023-04-02T03:30:33.797Z,-1.11
2023-04-02T03:31:03.482Z,-.74
2023-04-02T03:31:35.588Z,-1.68
2023-04-02T03:31:52.022Z,-2.07
2023-04-02T03:32:23.365Z,-1.81
2023-04-02T03:32:55.487Z,-1.19
2023-04-02T03:33:27.632Z,-.76
2023-04-02T03:33:59.556Z,-1.51
2023-04-02T03:34:32.468Z,-1.34
2023-04-02T03:35:05.569Z,-.87
2023-04-02T03:35:35.673Z,-.03
2023-04-02T03:35:52.506Z,-.41
2023-04-02T03:36:23.738Z,-1.62
2023-04-02T03:36:55.447Z,-1.31
2023-04-02T03:37:27.481Z,-1.35
2023-04-02T03:37:59.505Z,-.60
2023-04-02T03:38:32.053Z,-1.35
2023-04-02T03:39:03.280Z,-1.07
2023-04-02T03:39:35.439Z,-1.02
2023-04-02T03:39:51.985Z,-.82
2023-04-02T03:40:23.886Z,-.60
2023-04-02T03:40:55.483Z,-1.02
2023-04-02T03:41:27.512Z,-1.07
2023-04-02T03:41:59.594Z,-.82
2023-04-02T03:42:32.098Z,-1.96
2023-04-02T03:43:03.421Z,-2.34
2023-04-02T03:43:35.449Z,-2.14
2023-04-02T03:43:51.996Z,-1.62
2023-04-02T03:44:23.280Z,-2.41
2023-04-02T03:44:55.793Z,-1.31
2023-04-02T03:45:28.404Z,-1.66
2023-04-02T03:45:59.830Z,-2.14
2023-04-02T03:46:32.137Z,-1.66
2023-04-02T03:47:03.435Z,-1.21
2023-04-02T03:47:35.535Z,-1.07
2023-04-02T03:47:52.041Z,-.87
2023-04-02T03:48:23.408Z,-1.39
2023-04-02T03:48:55.673Z,-1.07
2023-04-02T03:49:27.527Z,-.95
2023-04-02T03:49:59.569Z,-1.66
2023-04-02T03:50:32.519Z,-1.39
2023-04-02T03:51:03.327Z,-1.82
2023-04-02T03:51:35.485Z,-1.87
2023-04-02T03:51:52.026Z,-1.53
2023-04-02T03:52:23.506Z,-.97
2023-04-02T03:52:55.561Z,-1.89
2023-04-02T03:53:27.676Z,-1.34
2023-04-02T03:53:59.576Z,-1.96
2023-04-02T03:54:32.164Z,-2.01
2023-04-02T03:55:04.836Z,-1.80
2023-04-02T03:55:35.619Z,-1.09
2023-04-02T03:55:52.412Z,-1.63
2023-04-02T03:56:23.361Z,-.57
2023-04-02T03:56:55.515Z,-1.09
2023-04-02T03:57:27.639Z,-1.20
2023-04-02T03:57:59.351Z,-2.46
2023-04-02T03:58:31.972Z,-1.34
2023-04-02T03:59:03.261Z,-1.29
2023-04-02T03:59:35.771Z,-1.89
2023-04-02T04:00:08.617Z,-1.89
2023-04-02T04:00:36.205Z,-1.90
2023-04-02T04:00:56.034Z,-1.29
2023-04-02T04:01:27.349Z,-1.68
2023-04-02T04:01:59.526Z,-1.73
2023-04-02T04:02:32.030Z,-1.29
2023-04-02T04:03:03.418Z,-1.55
2023-04-02T04:03:35.533Z,-1.44
2023-04-02T04:03:52.061Z,-2.04
2023-04-02T04:04:23.598Z,-2.31
2023-04-02T04:04:55.466Z,-1.83
2023-04-02T04:05:27.953Z,-1.23
2023-04-02T04:05:59.538Z,-2.31
2023-04-02T04:06:32.087Z,-2.53
2023-04-02T04:07:03.385Z,-2.98
2023-04-02T04:07:35.502Z,-2.47
2023-04-02T04:07:52.066Z,-2.20
2023-04-02T04:08:23.358Z,-2.78
2023-04-02T04:08:55.490Z,-3.09
2023-04-02T04:09:27.536Z,-2.53
2023-04-02T04:09:59.520Z,-2.78
2023-04-02T04:10:32.412Z,-2.16
2023-04-02T04:11:03.499Z,-2.29
2023-04-02T04:11:36.371Z,-1.63
2023-04-02T04:12:07.731Z,-2.71
2023-04-02T04:12:36.154Z,-1.02
2023-04-02T04:12:55.495Z,-2.35
2023-04-02T04:13:27.490Z,-2.04
2023-04-02T04:13:59.575Z,-1.11
2023-04-02T04:14:32.055Z,-1.29
2023-04-02T04:15:05.607Z,-1.60
2023-04-02T04:15:35.602Z,-1.90
2023-04-02T04:15:52.389Z,-2.16
2023-04-02T04:16:23.662Z,-1.78
2023-04-02T04:16:55.745Z,-1.29
2023-04-02T04:17:27.446Z,-1.23
2023-04-02T04:17:59.558Z,-1.49
2023-04-02T04:18:31.914Z,-2.94
2023-04-02T04:19:03.392Z,-2.35
2023-04-02T04:19:35.409Z,-2.61
2023-04-02T04:19:51.868Z,-2.75
2023-04-02T04:20:24.330Z,-1.09
2023-04-02T04:20:55.475Z,-1.49
2023-04-02T04:21:27.459Z,-1.97
2023-04-02T04:21:59.484Z,-2.18
2023-04-02T04:22:31.904Z,-2.34
2023-04-02T04:23:03.385Z,-1.02
2023-04-02T04:23:35.389Z,-1.81
2023-04-02T04:23:51.895Z,-1.81
2023-04-02T04:24:23.290Z,-2.61
2023-04-02T04:24:55.405Z,-2.53
2023-04-02T04:25:28.159Z,-2.75
2023-04-02T04:25:59.585Z,-3.17
2023-04-02T04:26:32.221Z,-2.49
2023-04-02T04:27:03.531Z,-2.96
2023-04-02T04:27:35.413Z,-3.20
2023-04-02T04:27:52.009Z,-2.85
2023-04-02T04:28:23.210Z,-2.81
2023-04-02T04:28:55.471Z,-2.51
2023-04-02T04:29:27.747Z,-2.55
2023-04-02T04:29:59.426Z,-2.63
2023-04-02T04:30:32.705Z,-2.40
2023-04-02T04:31:04.512Z,-2.51
2023-04-02T04:31:35.430Z,-1.43
2023-04-02T04:31:51.992Z,-2.24
2023-04-02T04:32:23.265Z,-2.10
2023-04-02T04:32:55.537Z,-2.91
2023-04-02T04:33:27.489Z,-2.36
2023-04-02T04:33:59.641Z,-2.36
2023-04-02T04:34:31.995Z,-2.98
2023-04-02T04:35:04.817Z,-2.24
2023-04-02T04:35:35.623Z,-1.43
2023-04-02T04:35:52.416Z,-1.31
2023-04-02T04:36:23.365Z,-1.75
2023-04-02T04:36:55.796Z,-2.63
2023-04-02T04:37:27.433Z,-1.88
2023-04-02T04:37:59.580Z,-1.63
2023-04-02T04:38:32.384Z,-2.31
2023-04-02T04:39:03.325Z,-1.43
2023-04-02T04:39:36.000Z,-2.24
2023-04-02T04:40:08.252Z,-1.01
2023-04-02T04:40:36.136Z,-1.01
2023-04-02T04:40:55.922Z,-2.44
2023-04-02T04:41:27.556Z,-2.10
2023-04-02T04:41:59.526Z,-3.27
2023-04-02T04:42:32.484Z,-2.31
2023-04-02T04:43:03.423Z,-2.78
2023-04-02T04:43:35.622Z,-2.98
2023-04-02T04:43:52.029Z,-2.51
2023-04-02T04:44:23.324Z,-2.91
2023-04-02T04:44:55.505Z,-2.78
2023-04-02T04:45:28.718Z,-3.13
2023-04-02T04:45:59.977Z,-2.81
2023-04-02T04:46:32.119Z,-2.33
2023-04-02T04:47:03.621Z,-2.88
2023-04-02T04:47:36.057Z,-3.13
2023-04-02T04:47:51.978Z,-2.81
2023-04-02T04:48:23.269Z,-2.73
2023-04-02T04:48:55.462Z,-2.77
2023-04-02T04:49:27.403Z,-1.56
2023-04-02T04:49:59.510Z,-2.17
2023-04-02T04:50:32.434Z,-1.21
2023-04-02T04:51:03.467Z,-2.38
2023-04-02T04:51:35.403Z,-3.22
2023-04-02T04:51:51.976Z,-2.73
2023-04-02T04:52:23.304Z,-3.32
2023-04-02T04:52:55.536Z,-2.77
2023-04-02T04:53:27.627Z,-3.02
2023-04-02T04:53:59.612Z,-2.79
2023-04-02T04:54:31.986Z,-3.77
2023-04-02T04:55:05.135Z,-3.27
2023-04-02T04:55:35.771Z,-2.68
2023-04-02T04:55:52.303Z,-.75
2023-04-02T04:56:24.042Z,-2.63
2023-04-02T04:56:55.562Z,-2.25
2023-04-02T04:57:27.632Z,-2.42
2023-04-02T04:58:00.174Z,-1.82
2023-04-02T04:58:32.029Z,-2.30
2023-04-02T04:59:03.614Z,-2.50
2023-04-02T04:59:35.518Z,-2.88
2023-04-02T04:59:52.145Z,-2.38
2023-04-02T05:00:24.403Z,-2.58
2023-04-02T05:00:55.834Z,-2.95
2023-04-02T05:01:27.662Z,-1.04
2023-04-02T05:01:59.511Z,-.62
2023-04-02T05:02:32.058Z,-2.06
2023-04-02T05:03:03.794Z,-1.77
2023-04-02T05:03:35.386Z,-1.21
2023-04-02T05:03:52.228Z,-1.28
2023-04-02T05:04:23.685Z,-.97
2023-04-02T05:04:55.882Z,-.70
2023-04-02T05:05:28.137Z,-1.88
2023-04-02T05:05:59.768Z,-2.33
2023-04-02T05:06:32.237Z,-1.63
2023-04-02T05:07:03.502Z,-1.77
2023-04-02T05:07:35.699Z,-2.01
2023-04-02T05:07:52.124Z,-1.68
2023-04-02T05:08:23.538Z,-2.99
2023-04-02T05:08:55.689Z,-2.24
2023-04-02T05:09:27.657Z,-1.93
2023-04-02T05:09:59.835Z,-2.38
2023-04-02T05:10:32.533Z,-3.13
2023-04-02T05:11:03.801Z,-2.95
2023-04-02T05:11:35.606Z,-2.88
2023-04-02T05:11:52.146Z,-2.38
2023-04-02T05:12:23.768Z,-2.92
2023-04-02T05:12:55.737Z,-2.01
2023-04-02T05:13:27.712Z,-1.68
2023-04-02T05:13:59.936Z,-2.69
2023-04-02T05:14:32.258Z,-2.95
2023-04-02T05:15:05.786Z,-2.25
2023-04-02T05:15:36.178Z,-2.54
2023-04-02T05:15:52.844Z,-2.45
2023-04-02T05:16:23.598Z,-3.39
2023-04-02T05:16:55.816Z,-3.43
2023-04-02T05:17:27.712Z,-2.68
2023-04-02T05:17:59.791Z,-3.39
2023-04-02T05:18:32.690Z,-3.47
2023-04-02T05:19:03.652Z,-2.47
2023-04-02T05:19:35.703Z,-2.87
2023-04-02T05:19:52.467Z,-2.68
2023-04-02T05:20:24.003Z,-2.59
2023-04-02T05:20:55.857Z,-1.90
2023-04-02T05:21:27.830Z,-1.90
2023-04-02T05:22:00.032Z,-1.76
2023-04-02T05:22:32.267Z,-2.59
2023-04-02T05:23:03.777Z,-2.25
2023-04-02T05:23:35.696Z,-1.96
2023-04-02T05:23:52.721Z,-1.82
2023-04-02T05:24:23.800Z,-1.70
2023-04-02T05:24:55.755Z,-1.90
2023-04-02T05:25:28.037Z,-1.56
2023-04-02T05:25:59.885Z,-2.01
2023-04-02T05:26:32.317Z,-2.02
2023-04-02T05:27:03.718Z,-1.96
2023-04-02T05:27:35.791Z,-1.42
2023-04-02T05:27:52.328Z,-1.10
2023-04-02T05:28:23.587Z,-.75
2023-04-02T05:28:56.559Z,-.34
2023-04-02T05:29:27.957Z,-1.35
2023-04-02T05:29:59.733Z,-2.38
2023-04-02T05:30:33.198Z,-1.58
2023-04-02T05:31:03.621Z,-2.38
2023-04-02T05:31:36.799Z,-2.59
2023-04-02T05:31:52.565Z,-2.72
2023-04-02T05:32:23.680Z,-1.96
2023-04-02T05:32:56.456Z,-1.96
2023-04-02T05:33:27.671Z,-1.82
2023-04-02T05:34:00.008Z,-2.22
2023-04-02T05:34:32.290Z,-1.78
2023-04-02T05:35:05.240Z,-1.56
2023-04-02T05:35:36.051Z,-2.35
2023-04-02T05:35:52.622Z,-2.35
2023-04-02T05:36:23.762Z,-2.57
2023-04-02T05:36:55.786Z,-3.12
2023-04-02T05:37:27.897Z,-2.66
2023-04-02T05:38:00.216Z,-2.81
2023-04-02T05:38:32.183Z,-3.08
2023-04-02T05:39:03.666Z,-2.30
2023-04-02T05:39:35.704Z,-3.12
2023-04-02T05:39:52.122Z,-2.81
2023-04-02T05:40:24.000Z,-2.10
2023-04-02T05:40:55.841Z,-2.99
2023-04-02T05:41:27.786Z,-3.45
2023-04-02T05:42:01.166Z,-2.87
2023-04-02T05:42:32.268Z,-2.50
2023-04-02T05:43:03.922Z,-1.36
2023-04-02T05:43:35.850Z,-2.25
2023-04-02T05:43:52.326Z,-1.92
2023-04-02T05:44:23.714Z,-2.65
2023-04-02T05:44:55.951Z,-2.74
2023-04-02T05:45:28.682Z,-2.44
2023-04-02T05:46:00.301Z,-2.30
2023-04-02T05:46:32.325Z,-3.73
2023-04-02T05:47:04.469Z,-2.63
2023-04-02T05:47:35.903Z,-2.38
2023-04-02T05:47:52.345Z,-2.96
2023-04-02T05:48:23.742Z,-3.69
2023-04-02T05:48:55.935Z,-3.37
2023-04-02T05:49:28.322Z,-3.28
2023-04-02T05:50:00.007Z,-3.21
2023-04-02T05:50:33.134Z,-3.37
2023-04-02T05:51:03.881Z,-3.13
2023-04-02T05:51:36.555Z,-2.05
2023-04-02T05:51:52.296Z,-2.05
2023-04-02T05:52:24.243Z,-2.25
2023-04-02T05:52:55.907Z,-3.65
2023-04-02T05:53:27.978Z,-3.10
2023-04-02T05:53:59.912Z,-3.15
2023-04-02T05:54:32.371Z,-2.64
2023-04-02T05:55:05.329Z,-2.82
2023-04-02T05:55:36.463Z,-1.62
2023-04-02T05:56:07.921Z,-2.87
2023-04-02T05:56:36.454Z,-2.77
2023-04-02T05:56:56.239Z,-3.10
2023-04-02T05:57:42.819Z,-2.82
2023-04-02T05:58:17.704Z,-2.02
2023-04-02T05:58:36.169Z,-1.62
2023-04-02T05:59:03.814Z,-2.31
2023-04-02T05:59:35.920Z,-2.18
2023-04-02T05:59:52.374Z,-2.18
2023-04-02T06:00:24.855Z,-2.37
2023-04-02T06:00:55.776Z,-2.52
2023-04-02T06:01:27.654Z,-2.58
2023-04-02T06:01:59.992Z,-3.31
2023-04-02T06:02:32.333Z,-2.77
2023-04-02T06:03:03.790Z,-3.65
2023-04-02T06:03:35.853Z,-3.87
2023-04-02T06:03:52.373Z,-3.91
2023-04-02T06:04:23.888Z,-2.82
2023-04-02T06:04:56.149Z,-2.87
2023-04-02T06:05:28.197Z,-3.30
2023-04-02T06:05:59.920Z,-3.89
2023-04-02T06:06:32.221Z,-3.81
2023-04-02T06:07:03.794Z,-3.46
2023-04-02T06:07:35.972Z,-4.42
2023-04-02T06:07:52.394Z,-3.85
2023-04-02T06:08:23.655Z,-3.37
2023-04-02T06:08:55.878Z,-3.70
2023-04-02T06:09:29.084Z,-3.25
2023-04-02T06:10:00.017Z,-4.27
2023-04-02T06:10:32.851Z,-3.46
2023-04-02T06:11:03.701Z,-4.02
2023-04-02T06:11:35.808Z,-3.74
2023-04-02T06:11:52.500Z,-3.46
2023-04-02T06:12:23.824Z,-2.46
2023-04-02T06:12:56.139Z,-3.20
2023-04-02T06:13:27.971Z,-3.70
2023-04-02T06:14:00.100Z,-3.37
2023-04-02T06:14:32.403Z,-1.84
2023-04-02T06:15:06.711Z,-2.92
2023-04-02T06:15:36.182Z,-3.30
2023-04-02T06:15:52.826Z,-3.81
2023-04-02T06:16:23.710Z,-2.97
2023-04-02T06:16:55.919Z,-3.42
2023-04-02T06:17:27.716Z,-3.42
2023-04-02T06:18:00.059Z,-3.81
2023-04-02T06:18:32.323Z,-3.30
2023-04-02T06:19:03.780Z,-3.08
2023-04-02T06:19:35.871Z,-2.92
2023-04-02T06:19:52.721Z,-3.08
2023-04-02T06:20:25.030Z,-2.72
2023-04-02T06:20:56.374Z,-2.58
2023-04-02T06:21:29.117Z,-3.08
2023-04-02T06:21:59.903Z,-3.50
2023-04-02T06:22:32.190Z,-3.08
2023-04-02T06:23:03.741Z,-2.92
2023-04-02T06:23:35.762Z,-2.17
2023-04-02T06:23:52.244Z,-2.23
2023-04-02T06:24:24.073Z,-3.15
2023-04-02T06:24:55.748Z,-3.66
2023-04-02T06:25:28.197Z,-3.25
2023-04-02T06:25:59.818Z,-4.02
2023-04-02T06:26:32.245Z,-3.08
2023-04-02T06:27:03.695Z,-3.37
2023-04-02T06:27:35.736Z,-2.67
2023-04-02T06:27:52.404Z,-3.66
2023-04-02T06:28:24.299Z,-3.37
2023-04-02T06:28:55.972Z,-3.42
2023-04-02T06:29:28.419Z,-2.40
2023-04-02T06:29:59.940Z,-3.46
2023-04-02T06:30:33.405Z,-3.57
2023-04-02T06:31:03.901Z,-4.10
2023-04-02T06:31:36.101Z,-3.46
2023-04-02T06:32:09.282Z,-3.20
2023-04-02T06:32:37.230Z,-3.50
2023-04-02T06:32:55.764Z,-3.74
2023-04-02T06:33:28.138Z,-2.84
2023-04-02T06:34:00.005Z,-4.19
2023-04-02T06:34:32.192Z,-3.25